createdAt,value
2023-02-23T00:02:09.229Z,15.70
2023-02-23T00:04:36.960Z,15.70
2023-02-23T00:07:04.296Z,15.70
2023-02-23T00:09:35.931Z,15.70
2023-02-23T00:12:08.151Z,15.70
2023-02-23T00:14:37.814Z,15.70
2023-02-23T00:17:10.786Z,15.70
2023-02-23T00:19:37.831Z,15.70
2023-02-23T00:22:04.781Z,15.70
2023-02-23T00:24:31.521Z,15.70
2023-02-23T00:26:58.544Z,15.70
2023-02-23T00:29:26.017Z,15.70
2023-02-23T00:31:56.109Z,15.70
2023-02-23T00:34:23.697Z,15.70
2023-02-23T00:36:54.330Z,15.70
2023-02-23T00:39:25.964Z,15.70
2023-02-23T00:41:55.411Z,15.70
2023-02-23T00:44:23.693Z,15.70
2023-02-23T00:46:51.904Z,15.70
2023-02-23T00:49:20.956Z,15.70
2023-02-23T00:51:48.043Z,15.70
2023-02-23T00:54:16.258Z,15.70
2023-02-23T00:56:45.494Z,15.70
2023-02-23T00:59:13.677Z,15.70
2023-02-23T01:01:44.127Z,15.70
2023-02-23T01:04:12.786Z,15.60
2023-02-23T01:06:41.571Z,15.70
2023-02-23T01:09:12.695Z,15.70
2023-02-23T01:11:41.481Z,15.60
2023-02-23T01:14:10.410Z,15.60
2023-02-23T01:16:38.936Z,15.60
2023-02-23T01:19:06.389Z,15.60
2023-02-23T01:21:36.686Z,15.60
2023-02-23T01:24:04.209Z,15.60
2023-02-23T01:26:36.518Z,15.60
2023-02-23T01:29:11.343Z,15.60
2023-02-23T01:31:40.878Z,15.60
2023-02-23T01:34:09.706Z,15.60
2023-02-23T01:36:41.829Z,15.60
2023-02-23T01:39:12.597Z,15.60
2023-02-23T01:41:44.805Z,15.60
2023-02-23T01:44:14.584Z,15.50
2023-02-23T01:46:46.472Z,15.60
2023-02-23T01:49:34.656Z,15.50
2023-02-23T01:52:11.416Z,15.50
2023-02-23T01:54:42.173Z,15.50
2023-02-23T01:57:14.045Z,15.50
2023-02-23T01:59:46.748Z,15.50
2023-02-23T02:02:14.311Z,15.50
2023-02-23T02:04:46.529Z,15.50
2023-02-23T02:07:17.172Z,15.50
2023-02-23T02:10:07.184Z,15.50
2023-02-23T02:12:34.166Z,15.50
2023-02-23T02:15:02.847Z,15.50
2023-02-23T02:17:40.203Z,15.50
2023-02-23T02:20:52.536Z,15.50
2023-02-23T02:23:37.404Z,15.50
2023-02-23T02:26:32.668Z,15.50
2023-02-23T02:29:28.772Z,15.50
2023-02-23T02:32:39.407Z,15.50
2023-02-23T02:35:29.106Z,15.50
2023-02-23T02:38:16.476Z,15.50
2023-02-23T02:40:55.590Z,15.50
2023-02-23T02:43:37.798Z,15.50
2023-02-23T02:46:14.483Z,15.40
2023-02-23T02:49:00.212Z,15.40
2023-02-23T02:51:43.353Z,15.40
2023-02-23T02:54:36.968Z,15.40
2023-02-23T02:57:04.875Z,15.40
2023-02-23T03:00:00.867Z,15.40
2023-02-23T03:02:46.742Z,15.40
2023-02-23T03:05:39.706Z,15.40
2023-02-23T03:08:44.130Z,15.40
2023-02-23T03:11:32.477Z,15.40
2023-02-23T03:14:26.803Z,15.40
2023-02-23T03:17:24.912Z,15.40
2023-02-23T03:20:24.485Z,15.40
2023-02-23T03:23:22.237Z,15.40
2023-02-23T03:26:15.747Z,15.40
2023-02-23T03:29:22.949Z,15.40
2023-02-23T03:32:20.351Z,15.40
2023-02-23T03:35:16.747Z,15.40
2023-02-23T03:38:11.913Z,15.40
2023-02-23T03:41:00.558Z,15.40
2023-02-23T03:43:53.469Z,15.40
2023-02-23T03:46:40.711Z,15.40
2023-02-23T03:49:29.809Z,15.40
2023-02-23T03:52:22.178Z,15.40
2023-02-23T03:55:19.734Z,15.40
2023-02-23T03:58:09.479Z,15.40
2023-02-23T04:01:00.741Z,15.40
2023-02-23T04:03:49.440Z,15.30
2023-02-23T04:06:37.462Z,15.30
2023-02-23T04:09:25.941Z,15.30
2023-02-23T04:12:16.778Z,15.30
2023-02-23T04:15:08.282Z,15.30
2023-02-23T04:17:35.719Z,15.30
2023-02-23T04:20:03.591Z,15.30
2023-02-23T04:22:30.463Z,15.30
2023-02-23T04:24:57.257Z,15.30
2023-02-23T04:27:24.112Z,15.30
2023-02-23T04:29:51.276Z,15.30
2023-02-23T04:32:20.889Z,15.30
2023-02-23T04:34:47.842Z,15.30
2023-02-23T04:37:15.316Z,15.20
2023-02-23T04:39:48.580Z,15.30
2023-02-23T04:42:16.739Z,15.30
2023-02-23T04:44:43.865Z,15.30
2023-02-23T04:47:10.881Z,15.30
2023-02-23T04:49:38.077Z,15.30
2023-02-23T04:52:05.021Z,15.30
2023-02-23T04:54:31.785Z,15.30
2023-02-23T04:56:58.764Z,15.30
2023-02-23T04:59:25.859Z,15.30
2023-02-23T05:01:52.642Z,15.30
2023-02-23T05:04:19.438Z,15.30
2023-02-23T05:06:46.246Z,15.20
2023-02-23T05:09:13.387Z,15.20
2023-02-23T05:11:40.361Z,15.20
2023-02-23T05:14:07.204Z,15.20
2023-02-23T05:16:34.024Z,15.30
2023-02-23T05:19:01.654Z,15.30
2023-02-23T05:21:28.571Z,15.30
2023-02-23T05:23:56.605Z,15.20
2023-02-23T05:26:23.676Z,15.30
2023-02-23T05:28:50.445Z,15.30
2023-02-23T05:31:17.541Z,15.30
2023-02-23T05:33:45.797Z,15.30
2023-02-23T05:36:16.366Z,15.30
2023-02-23T05:38:44.296Z,15.30
2023-02-23T05:41:14.152Z,15.30
2023-02-23T05:43:42.262Z,15.30
2023-02-23T05:46:11.322Z,15.30
2023-02-23T05:48:38.354Z,15.30
2023-02-23T05:51:08.066Z,15.20
2023-02-23T05:53:35.367Z,15.20
2023-02-23T05:56:04.056Z,15.20
2023-02-23T05:58:31.052Z,15.20
2023-02-23T06:00:57.948Z,15.20
2023-02-23T06:03:25.322Z,15.20
2023-02-23T06:05:54.238Z,15.20
2023-02-23T06:08:21.766Z,15.20
2023-02-23T06:10:49.000Z,15.20
2023-02-23T06:13:16.392Z,15.20
2023-02-23T06:15:44.275Z,15.20
2023-02-23T06:18:12.168Z,15.20
2023-02-23T06:20:40.547Z,15.20
2023-02-23T06:23:07.671Z,15.20
2023-02-23T06:25:34.926Z,15.20
2023-02-23T06:28:01.741Z,15.20
2023-02-23T06:30:28.781Z,15.20
2023-02-23T06:32:55.793Z,15.20
2023-02-23T06:35:22.676Z,15.20
2023-02-23T06:37:49.570Z,15.20
2023-02-23T06:40:16.662Z,15.10
2023-02-23T06:42:43.518Z,15.20
2023-02-23T06:45:10.996Z,15.10
2023-02-23T06:47:37.769Z,15.20
2023-02-23T06:50:05.207Z,15.20
2023-02-23T06:52:32.234Z,15.10
2023-02-23T06:54:59.279Z,15.20
2023-02-23T06:57:26.169Z,15.20
2023-02-23T06:59:53.394Z,15.20
2023-02-23T07:02:20.189Z,15.20
2023-02-23T07:04:47.188Z,15.20
2023-02-23T07:07:14.634Z,15.10
2023-02-23T07:09:44.235Z,15.20
2023-02-23T07:12:15.675Z,15.10
2023-02-23T07:14:44.858Z,15.10
2023-02-23T07:17:14.178Z,15.10
2023-02-23T07:19:41.875Z,15.10
2023-02-23T07:22:08.901Z,15.10
2023-02-23T07:24:37.554Z,15.10
2023-02-23T07:27:05.180Z,15.10
2023-02-23T07:29:33.359Z,15.10
2023-02-23T07:32:00.836Z,15.20
2023-02-23T07:34:29.531Z,15.20
2023-02-23T07:36:59.177Z,15.20
2023-02-23T07:39:26.436Z,15.20
2023-02-23T07:41:53.310Z,15.20
2023-02-23T07:44:20.415Z,15.20
2023-02-23T07:46:47.258Z,15.20
2023-02-23T07:49:14.545Z,15.20
2023-02-23T07:51:42.046Z,15.20
2023-02-23T07:54:08.820Z,15.20
2023-02-23T07:56:35.831Z,15.30
2023-02-23T07:59:03.198Z,15.30
2023-02-23T08:01:31.041Z,15.30
2023-02-23T08:03:58.226Z,15.30
2023-02-23T08:06:25.306Z,15.30
2023-02-23T08:08:52.161Z,15.30
2023-02-23T08:11:19.469Z,15.30
2023-02-23T08:13:46.477Z,15.30
2023-02-23T08:16:13.578Z,15.40
2023-02-23T08:18:40.510Z,15.40
2023-02-23T08:21:07.787Z,15.40
2023-02-23T08:23:35.604Z,15.40
2023-02-23T08:26:02.584Z,15.40
2023-02-23T08:28:30.868Z,15.40
2023-02-23T08:30:59.302Z,15.40
2023-02-23T08:33:26.556Z,15.50
2023-02-23T08:35:53.754Z,15.50
2023-02-23T08:38:20.864Z,15.50
2023-02-23T08:40:47.656Z,15.50
2023-02-23T08:43:14.523Z,15.50
2023-02-23T08:45:41.509Z,15.50
2023-02-23T08:48:08.981Z,15.60
2023-02-23T08:50:35.984Z,15.60
2023-02-23T08:53:04.154Z,15.60
2023-02-23T08:55:31.290Z,15.60
2023-02-23T08:57:58.720Z,15.60
2023-02-23T09:00:25.785Z,15.60
2023-02-23T09:02:52.800Z,15.60
2023-02-23T09:05:20.813Z,15.60
2023-02-23T09:07:49.141Z,15.60
2023-02-23T09:10:19.871Z,15.60
2023-02-23T09:12:46.785Z,15.60
2023-02-23T09:15:13.682Z,15.60
2023-02-23T09:17:42.884Z,15.60
2023-02-23T09:20:13.516Z,15.60
2023-02-23T09:22:42.000Z,15.60
2023-02-23T09:25:10.437Z,15.60
2023-02-23T09:27:37.327Z,15.70
2023-02-23T09:30:04.992Z,15.60
2023-02-23T09:32:32.258Z,15.70
2023-02-23T09:34:59.093Z,15.70
2023-02-23T09:37:25.914Z,15.70
2023-02-23T09:39:52.701Z,15.70
2023-02-23T09:42:25.332Z,15.70
2023-02-23T09:45:39.915Z,15.70
2023-02-23T09:48:15.623Z,15.70
2023-02-23T09:50:54.390Z,15.70
2023-02-23T09:53:31.195Z,15.80
2023-02-23T09:56:00.106Z,15.80
2023-02-23T09:58:32.936Z,15.80
2023-02-23T10:01:19.190Z,15.80
2023-02-23T10:04:31.515Z,15.80
2023-02-23T10:07:06.889Z,15.80
2023-02-23T10:10:13.771Z,15.90
2023-02-23T10:13:05.471Z,15.80
2023-02-23T10:15:47.177Z,15.90
2023-02-23T10:18:20.074Z,15.90
2023-02-23T10:20:58.210Z,15.90
2023-02-23T10:23:49.381Z,15.90
2023-02-23T10:26:24.952Z,16.00
2023-02-23T10:28:54.876Z,16.00
2023-02-23T10:31:28.079Z,16.00
2023-02-23T10:34:00.097Z,16.00
2023-02-23T10:36:39.178Z,16.00
2023-02-23T10:39:07.743Z,16.00
2023-02-23T10:41:38.814Z,16.10
2023-02-23T10:44:16.257Z,16.10
2023-02-23T10:46:45.773Z,16.10
2023-02-23T10:49:22.561Z,16.10
2023-02-23T10:51:52.282Z,16.10
2023-02-23T10:54:36.768Z,16.10
2023-02-23T10:57:06.974Z,16.10
2023-02-23T10:59:34.728Z,16.10
2023-02-23T11:02:21.824Z,16.10
2023-02-23T11:04:54.771Z,16.10
2023-02-23T11:07:31.231Z,16.20
2023-02-23T11:10:26.253Z,16.20
2023-02-23T11:12:53.164Z,16.20
2023-02-23T11:15:48.077Z,16.20
2023-02-23T11:18:24.978Z,16.30
2023-02-23T11:20:52.334Z,16.30
2023-02-23T11:23:29.590Z,16.30
2023-02-23T11:26:02.727Z,16.30
2023-02-23T11:28:31.607Z,16.30
2023-02-23T11:31:09.113Z,16.30
2023-02-23T11:33:39.249Z,16.40
2023-02-23T11:36:23.036Z,16.40
2023-02-23T11:39:20.064Z,16.40
2023-02-23T11:41:46.915Z,16.40
2023-02-23T11:44:22.173Z,16.50
2023-02-23T11:46:51.246Z,16.50
2023-02-23T11:49:24.357Z,16.50
2023-02-23T11:51:52.266Z,16.60
2023-02-23T11:54:28.511Z,16.60
2023-02-23T11:56:57.552Z,16.60
2023-02-23T11:59:30.984Z,16.60
2023-02-23T12:02:19.203Z,16.70
2023-02-23T12:04:50.504Z,16.60
2023-02-23T12:07:38.829Z,16.70
2023-02-23T12:10:22.814Z,16.70
2023-02-23T12:12:55.928Z,16.70
2023-02-23T12:15:50.612Z,16.70
2023-02-23T12:18:39.089Z,16.80
2023-02-23T12:21:33.119Z,16.80
2023-02-23T12:24:34.140Z,16.80
2023-02-23T12:27:04.223Z,16.80
2023-02-23T12:29:50.741Z,16.90
2023-02-23T12:32:26.860Z,16.90
2023-02-23T12:35:02.141Z,16.90
2023-02-23T12:37:42.397Z,16.90
2023-02-23T12:40:19.576Z,16.90
2023-02-23T12:43:12.403Z,16.90
2023-02-23T12:46:08.104Z,16.90
2023-02-23T12:48:48.690Z,16.90
2023-02-23T12:51:22.045Z,17.00
2023-02-23T12:53:48.960Z,16.90
2023-02-23T12:56:53.220Z,17.00
2023-02-23T12:59:22.949Z,17.00
2023-02-23T13:02:00.770Z,17.00
2023-02-23T13:04:47.064Z,17.00
2023-02-23T13:07:23.422Z,17.00
2023-02-23T13:10:12.525Z,17.00
2023-02-23T13:12:49.683Z,17.00
2023-02-23T13:15:29.704Z,17.10
2023-02-23T13:18:01.640Z,17.10
2023-02-23T13:20:48.999Z,17.10
2023-02-23T13:23:34.020Z,17.10
2023-02-23T13:26:28.154Z,17.10
2023-02-23T13:29:24.832Z,17.10
2023-02-23T13:31:52.724Z,17.20
2023-02-23T13:34:27.768Z,17.20
2023-02-23T13:36:55.690Z,17.20
2023-02-23T13:39:35.212Z,17.30
2023-02-23T13:42:18.126Z,17.30
2023-02-23T13:45:06.736Z,17.30
2023-02-23T13:47:39.726Z,17.30
2023-02-23T13:50:37.784Z,17.30
2023-02-23T13:53:08.078Z,17.30
2023-02-23T13:55:50.191Z,17.30
2023-02-23T13:58:25.172Z,17.30
2023-02-23T14:01:03.232Z,17.30
2023-02-23T14:03:33.998Z,17.30
2023-02-23T14:06:01.493Z,17.30
2023-02-23T14:08:39.093Z,17.40
2023-02-23T14:11:06.548Z,17.40
2023-02-23T14:13:40.176Z,17.40
2023-02-23T14:16:19.407Z,17.40
2023-02-23T14:19:32.262Z,17.40
2023-02-23T14:22:04.176Z,17.40
2023-02-23T14:24:31.053Z,17.40
2023-02-23T14:27:14.898Z,17.40
2023-02-23T14:30:10.628Z,17.40
2023-02-23T14:32:42.603Z,17.40
2023-02-23T14:35:34.492Z,17.40
2023-02-23T14:38:09.602Z,17.40
2023-02-23T14:40:42.594Z,17.40
2023-02-23T14:43:41.536Z,17.40
2023-02-23T14:46:25.109Z,17.40
2023-02-23T14:48:59.316Z,17.40
2023-02-23T14:51:42.420Z,17.40
2023-02-23T14:54:32.989Z,17.40
2023-02-23T14:57:06.365Z,17.40
2023-02-23T14:59:42.220Z,17.40
2023-02-23T15:02:21.806Z,17.50
2023-02-23T15:04:48.834Z,17.50
2023-02-23T15:07:37.142Z,17.50
2023-02-23T15:10:17.420Z,17.50
2023-02-23T15:12:46.535Z,17.50
2023-02-23T15:15:18.976Z,17.50
2023-02-23T15:17:48.097Z,17.50
2023-02-23T15:20:17.965Z,17.50
2023-02-23T15:22:52.279Z,17.50
2023-02-23T15:25:24.070Z,17.50
2023-02-23T15:27:51.907Z,17.50
2023-02-23T15:30:24.126Z,17.50
2023-02-23T15:33:28.801Z,17.50
2023-02-23T15:36:08.275Z,17.50
2023-02-23T15:38:44.357Z,17.50
2023-02-23T15:41:27.624Z,17.50
2023-02-23T15:43:57.289Z,17.50
2023-02-23T15:46:29.692Z,17.40
2023-02-23T15:49:01.069Z,17.40
2023-02-23T15:51:44.489Z,17.50
2023-02-23T15:54:29.630Z,17.40
2023-02-23T15:57:02.316Z,17.40
2023-02-23T15:59:35.049Z,17.40
2023-02-23T16:02:03.680Z,17.40
2023-02-23T16:04:32.966Z,17.40
2023-02-23T16:07:18.890Z,17.40
2023-02-23T16:09:48.824Z,17.40
2023-02-23T16:12:21.035Z,17.40
2023-02-23T16:15:24.289Z,17.40
2023-02-23T16:18:00.985Z,17.40
2023-02-23T16:20:43.987Z,17.40
2023-02-23T16:23:41.332Z,17.40
2023-02-23T16:26:12.921Z,17.40
2023-02-23T16:28:45.032Z,17.40
2023-02-23T16:31:14.124Z,17.40
2023-02-23T16:34:01.632Z,17.40
2023-02-23T16:36:40.042Z,17.40
2023-02-23T16:39:11.950Z,17.30
2023-02-23T16:41:39.270Z,17.30
2023-02-23T16:44:07.714Z,17.30
2023-02-23T16:46:54.602Z,17.30
2023-02-23T16:49:23.341Z,17.30
2023-02-23T16:51:51.281Z,17.30
2023-02-23T16:54:18.178Z,17.30
2023-02-23T16:56:47.269Z,17.30
2023-02-23T16:59:17.454Z,17.30
2023-02-23T17:01:49.526Z,17.30
2023-02-23T17:04:18.649Z,17.30
2023-02-23T17:06:47.300Z,17.30
2023-02-23T17:09:14.183Z,17.30
2023-02-23T17:11:44.183Z,17.20
2023-02-23T17:14:23.905Z,17.20
2023-02-23T17:16:51.797Z,17.20
2023-02-23T17:19:18.769Z,17.20
2023-02-23T17:21:46.648Z,17.20
2023-02-23T17:24:13.437Z,17.20
2023-02-23T17:26:42.102Z,17.20
2023-02-23T17:29:08.987Z,17.20
2023-02-23T17:31:38.508Z,17.10
2023-02-23T17:34:06.211Z,17.10
2023-02-23T17:36:33.095Z,17.10
2023-02-23T17:39:00.003Z,17.10
2023-02-23T17:41:27.618Z,17.10
2023-02-23T17:43:54.900Z,17.10
2023-02-23T17:46:24.046Z,17.10
2023-02-23T17:48:51.014Z,17.00
2023-02-23T17:51:19.522Z,17.10
2023-02-23T17:53:47.154Z,17.00
2023-02-23T17:56:14.128Z,17.00
2023-02-23T17:58:41.722Z,17.00
2023-02-23T18:01:09.488Z,17.00
2023-02-23T18:03:37.124Z,17.00
2023-02-23T18:06:08.316Z,17.00
2023-02-23T18:08:36.471Z,17.00
2023-02-23T18:11:03.848Z,16.90
2023-02-23T18:13:33.289Z,16.90
2023-02-23T18:16:09.315Z,16.90
2023-02-23T18:18:38.870Z,16.90
2023-02-23T18:21:14.278Z,16.90
2023-02-23T18:23:41.570Z,16.90
2023-02-23T18:26:11.629Z,16.90
2023-02-23T18:28:41.010Z,16.90
2023-02-23T18:31:08.020Z,16.90
2023-02-23T18:33:35.930Z,16.80
2023-02-23T18:36:03.984Z,16.80
2023-02-23T18:38:30.842Z,16.80
2023-02-23T18:40:58.481Z,16.80
2023-02-23T18:43:25.401Z,16.80
2023-02-23T18:45:52.384Z,16.80
2023-02-23T18:48:19.310Z,16.70
2023-02-23T18:50:46.290Z,16.70
2023-02-23T18:53:13.218Z,16.70
2023-02-23T18:55:40.954Z,16.70
2023-02-23T18:58:07.859Z,16.70
2023-02-23T19:00:40.201Z,16.60
2023-02-23T19:03:07.441Z,16.60
2023-02-23T19:05:36.311Z,16.60
2023-02-23T19:08:04.302Z,16.60
2023-02-23T19:10:31.252Z,16.60
2023-02-23T19:12:58.651Z,16.50
2023-02-23T19:15:25.548Z,16.50
2023-02-23T19:17:53.770Z,16.50
2023-02-23T19:20:22.832Z,16.40
2023-02-23T19:22:49.943Z,16.40
2023-02-23T19:25:16.863Z,16.30
2023-02-23T19:27:43.931Z,16.30
2023-02-23T19:30:11.415Z,16.30
2023-02-23T19:32:40.022Z,16.30
2023-02-23T19:35:10.321Z,16.20
2023-02-23T19:37:40.645Z,16.20
2023-02-23T19:40:08.512Z,16.20
2023-02-23T19:42:36.959Z,16.10
2023-02-23T19:45:04.328Z,16.10
2023-02-23T19:47:31.241Z,16.10
2023-02-23T19:49:58.099Z,16.10
2023-02-23T19:52:25.078Z,16.00
2023-02-23T19:54:51.879Z,16.00
2023-02-23T19:57:20.626Z,16.00
2023-02-23T19:59:47.439Z,16.00
2023-02-23T20:02:14.727Z,15.90
2023-02-23T20:04:41.584Z,15.90
2023-02-23T20:07:09.914Z,15.90
2023-02-23T20:09:36.794Z,15.90
2023-02-23T20:12:03.806Z,15.90
2023-02-23T20:14:32.656Z,15.90
2023-02-23T20:17:00.114Z,15.90
2023-02-23T20:19:27.351Z,15.80
2023-02-23T20:21:54.453Z,15.80
2023-02-23T20:24:21.293Z,15.80
2023-02-23T20:26:48.142Z,15.80
2023-02-23T20:29:18.049Z,15.80
2023-02-23T20:31:51.595Z,15.80
2023-02-23T20:34:23.694Z,15.80
2023-02-23T20:36:51.291Z,15.80
2023-02-23T20:39:19.148Z,15.80
2023-02-23T20:41:47.830Z,15.80
2023-02-23T20:44:15.502Z,15.80
2023-02-23T20:46:44.571Z,15.80
2023-02-23T20:49:12.880Z,15.80
2023-02-23T20:51:44.006Z,15.80
2023-02-23T20:54:11.686Z,15.80
2023-02-23T20:56:39.631Z,15.70
2023-02-23T20:59:11.291Z,15.80
2023-02-23T21:01:42.611Z,15.70
2023-02-23T21:04:09.671Z,15.80
2023-02-23T21:06:36.502Z,15.80
2023-02-23T21:09:05.788Z,15.80
2023-02-23T21:11:32.975Z,15.70
2023-02-23T21:14:00.121Z,15.80
2023-02-23T21:16:27.761Z,15.70
2023-02-23T21:19:04.133Z,15.70
2023-02-23T21:21:42.091Z,15.70
2023-02-23T21:24:09.832Z,15.80
2023-02-23T21:26:36.703Z,15.80
2023-02-23T21:29:04.503Z,15.80
2023-02-23T21:31:31.376Z,15.80
2023-02-23T21:33:58.602Z,15.80
2023-02-23T21:36:25.394Z,15.80
2023-02-23T21:38:52.228Z,15.80
2023-02-23T21:41:19.361Z,15.80
2023-02-23T21:43:46.649Z,15.80
2023-02-23T21:46:16.619Z,15.80
2023-02-23T21:48:44.131Z,15.80
2023-02-23T21:51:13.990Z,15.80
2023-02-23T21:53:42.043Z,15.80
2023-02-23T21:56:36.713Z,15.80
2023-02-23T21:59:05.807Z,15.80
2023-02-23T22:01:35.428Z,15.80
2023-02-23T22:04:03.420Z,15.80
2023-02-23T22:06:38.894Z,15.80
2023-02-23T22:09:10.791Z,15.80
2023-02-23T22:11:39.252Z,15.80
2023-02-23T22:14:10.449Z,15.80
2023-02-23T22:16:39.723Z,15.70
2023-02-23T22:19:07.072Z,15.70
2023-02-23T22:21:37.022Z,15.70
2023-02-23T22:24:05.490Z,15.70
2023-02-23T22:26:37.856Z,15.70
2023-02-23T22:29:06.335Z,15.70
2023-02-23T22:31:33.373Z,15.70
2023-02-23T22:34:00.298Z,15.60
2023-02-23T22:36:27.647Z,15.60
2023-02-23T22:38:58.282Z,15.60
2023-02-23T22:41:29.363Z,15.60
2023-02-23T22:43:57.699Z,15.60
2023-02-23T22:46:25.217Z,15.60
2023-02-23T22:48:52.120Z,15.60
2023-02-23T22:51:22.473Z,15.60
2023-02-23T22:53:49.423Z,15.50
2023-02-23T22:56:16.292Z,15.50
2023-02-23T22:58:43.145Z,15.50
2023-02-23T23:01:11.551Z,15.50
2023-02-23T23:03:45.672Z,15.50
2023-02-23T23:06:23.104Z,15.50
2023-02-23T23:08:52.382Z,15.40
2023-02-23T23:11:22.286Z,15.40
2023-02-23T23:13:51.768Z,15.40
2023-02-23T23:16:31.214Z,15.40
2023-02-23T23:19:11.826Z,15.40
2023-02-23T23:21:40.707Z,15.40
2023-02-23T23:24:08.229Z,15.40
2023-02-23T23:26:39.585Z,15.30
2023-02-23T23:29:10.131Z,15.40
2023-02-23T23:31:39.505Z,15.30
2023-02-23T23:34:10.240Z,15.30
2023-02-23T23:36:43.072Z,15.30
2023-02-23T23:39:16.126Z,15.30
2023-02-23T23:41:44.709Z,15.30
2023-02-23T23:44:13.159Z,15.30
2023-02-23T23:46:44.884Z,15.30
2023-02-23T23:49:15.894Z,15.30
2023-02-23T23:51:50.197Z,15.30
2023-02-23T23:54:19.119Z,15.30
2023-02-23T23:56:46.230Z,15.30
2023-02-23T23:59:16.449Z,15.30
